createdAt,value
2023-08-31T00:01:02.558Z,15.20
2023-08-31T00:03:48.715Z,15.20
2023-08-31T00:06:29.358Z,15.20
2023-08-31T00:09:17.654Z,15.30
2023-08-31T00:12:04.410Z,15.30
2023-08-31T00:15:14.219Z,15.30
2023-08-31T00:17:56.984Z,15.30
2023-08-31T00:20:42.854Z,15.30
2023-08-31T00:23:54.748Z,15.40
2023-08-31T00:27:04.020Z,15.40
2023-08-31T00:29:41.073Z,15.40
2023-08-31T00:32:40.860Z,15.40
2023-08-31T00:35:32.978Z,15.40
2023-08-31T00:38:06.281Z,15.40
2023-08-31T00:41:02.731Z,15.40
2023-08-31T00:44:21.460Z,15.40
2023-08-31T00:47:05.583Z,15.40
2023-08-31T00:50:07.984Z,15.40
2023-08-31T00:52:59.320Z,15.40
2023-08-31T00:55:54.579Z,15.30
2023-08-31T00:58:45.195Z,15.30
2023-08-31T01:02:02.668Z,15.30
2023-08-31T01:05:08.645Z,15.30
2023-08-31T01:08:07.275Z,15.30
2023-08-31T01:11:21.055Z,15.30
2023-08-31T01:14:27.245Z,15.30
2023-08-31T01:17:41.421Z,15.30
2023-08-31T01:20:23.520Z,15.30
2023-08-31T01:23:08.033Z,15.30
2023-08-31T01:25:51.244Z,15.20
2023-08-31T01:28:59.728Z,15.30
2023-08-31T01:31:51.221Z,15.20
2023-08-31T01:35:00.171Z,15.20
2023-08-31T01:37:56.638Z,15.20
2023-08-31T01:41:05.491Z,15.20
2023-08-31T01:43:56.239Z,15.20
2023-08-31T01:46:46.444Z,15.20
2023-08-31T01:49:49.633Z,15.30
2023-08-31T01:52:26.231Z,15.30
2023-08-31T01:55:17.707Z,15.30
2023-08-31T01:58:29.830Z,15.30
2023-08-31T02:01:32.925Z,15.30
2023-08-31T02:04:33.196Z,15.30
2023-08-31T02:07:30.829Z,15.40
2023-08-31T02:10:36.890Z,15.40
2023-08-31T02:13:22.093Z,15.40
2023-08-31T02:16:39.384Z,15.40
2023-08-31T02:19:37.374Z,15.50
2023-08-31T02:22:38.847Z,15.50
2023-08-31T02:25:20.323Z,15.50
2023-08-31T02:28:17.204Z,15.50
2023-08-31T02:31:07.725Z,15.50
2023-08-31T02:34:28.822Z,15.50
2023-08-31T02:37:13.272Z,15.50
2023-08-31T02:40:43.304Z,15.40
2023-08-31T02:43:40.059Z,15.40
2023-08-31T02:46:20.556Z,15.30
2023-08-31T02:49:12.044Z,15.30
2023-08-31T02:52:16.673Z,15.30
2023-08-31T02:54:48.779Z,15.20
2023-08-31T02:57:47.827Z,15.20
2023-08-31T03:00:24.433Z,15.20
2023-08-31T03:03:21.224Z,15.20
2023-08-31T03:06:11.033Z,15.10
2023-08-31T03:09:44.903Z,15.10
2023-08-31T03:12:48.934Z,15.10
2023-08-31T03:15:33.474Z,15.10
2023-08-31T03:18:23.788Z,15.00
2023-08-31T03:21:10.018Z,15.00
2023-08-31T03:23:48.174Z,15.00
2023-08-31T03:26:27.035Z,14.90
2023-08-31T03:28:57.609Z,14.90
2023-08-31T03:31:43.593Z,14.90
2023-08-31T03:34:51.396Z,14.90
2023-08-31T03:37:50.756Z,14.80
2023-08-31T03:40:56.928Z,14.80
2023-08-31T03:44:28.937Z,14.70
2023-08-31T03:47:13.837Z,14.70
2023-08-31T03:50:20.665Z,14.70
2023-08-31T03:53:11.304Z,14.70
2023-08-31T03:55:57.025Z,14.70
2023-08-31T03:58:29.697Z,14.60
2023-08-31T04:01:17.918Z,14.60
2023-08-31T04:03:54.362Z,14.50
2023-08-31T04:07:09.140Z,14.60
2023-08-31T04:09:56.512Z,14.50
2023-08-31T04:12:44.287Z,14.50
2023-08-31T04:15:36.146Z,14.50
2023-08-31T04:18:49.294Z,14.50
2023-08-31T04:22:03.227Z,14.40
2023-08-31T04:24:59.467Z,14.40
2023-08-31T04:28:19.714Z,14.40
2023-08-31T04:31:06.246Z,14.30
2023-08-31T04:33:57.426Z,14.30
2023-08-31T04:37:00.315Z,14.30
2023-08-31T04:39:56.626Z,14.20
2023-08-31T04:43:14.588Z,14.30
2023-08-31T04:46:11.723Z,14.20
2023-08-31T04:48:58.331Z,14.20
2023-08-31T04:52:18.958Z,14.20
2023-08-31T04:54:57.516Z,14.20
2023-08-31T04:58:00.022Z,14.20
2023-08-31T05:00:46.675Z,14.20
2023-08-31T05:03:45.165Z,14.20
2023-08-31T05:06:21.585Z,14.10
2023-08-31T05:09:44.148Z,14.10
2023-08-31T05:12:37.521Z,14.10
2023-08-31T05:15:29.328Z,14.10
2023-08-31T05:17:59.833Z,14.10
2023-08-31T05:20:50.675Z,14.10
2023-08-31T05:23:42.129Z,14.10
2023-08-31T05:26:30.276Z,14.10
2023-08-31T05:29:32.121Z,14.10
2023-08-31T05:32:15.456Z,14.10
2023-08-31T05:35:05.182Z,14.10
2023-08-31T05:37:57.556Z,14.10
2023-08-31T05:41:00.777Z,14.10
2023-08-31T05:44:17.478Z,14.10
2023-08-31T05:47:09.095Z,14.20
2023-08-31T05:49:52.854Z,14.20
2023-08-31T05:53:06.275Z,14.20
2023-08-31T05:56:06.421Z,14.30
2023-08-31T05:58:56.326Z,14.30
2023-08-31T06:02:28.224Z,14.40
2023-08-31T06:05:37.089Z,14.50
2023-08-31T06:08:26.805Z,14.50
2023-08-31T06:11:16.223Z,14.60
2023-08-31T06:14:11.351Z,14.70
2023-08-31T06:16:54.168Z,14.80
2023-08-31T06:19:39.314Z,14.90
2023-08-31T06:22:29.245Z,15.00
2023-08-31T06:25:42.748Z,15.10
2023-08-31T06:28:17.988Z,15.10
2023-08-31T06:31:08.214Z,15.20
2023-08-31T06:34:11.833Z,15.30
2023-08-31T06:37:08.455Z,15.40
2023-08-31T06:39:42.403Z,15.50
2023-08-31T06:42:38.293Z,15.50
2023-08-31T06:45:49.450Z,15.70
2023-08-31T06:48:46.243Z,15.80
2023-08-31T06:51:37.624Z,15.90
2023-08-31T06:54:33.722Z,16.10
2023-08-31T06:57:28.302Z,16.20
2023-08-31T07:00:09.971Z,16.20
2023-08-31T07:03:08.406Z,16.30
2023-08-31T07:05:48.230Z,16.40
2023-08-31T07:08:35.610Z,16.40
2023-08-31T07:11:45.179Z,16.50
2023-08-31T07:14:57.231Z,16.50
2023-08-31T07:17:59.950Z,16.50
2023-08-31T07:20:48.218Z,16.50
2023-08-31T07:23:45.169Z,16.50
2023-08-31T07:26:47.827Z,16.50
2023-08-31T07:29:55.187Z,16.50
2023-08-31T07:33:11.022Z,16.60
2023-08-31T07:36:12.985Z,16.60
2023-08-31T07:39:05.846Z,16.70
2023-08-31T07:42:05.297Z,16.70
2023-08-31T07:44:52.557Z,16.70
2023-08-31T07:47:51.974Z,16.70
2023-08-31T07:50:45.169Z,16.70
2023-08-31T07:53:42.615Z,16.80
2023-08-31T07:56:22.005Z,16.80
2023-08-31T07:59:41.891Z,16.90
2023-08-31T08:02:46.911Z,17.10
2023-08-31T08:05:58.088Z,17.10
2023-08-31T08:08:39.349Z,17.30
2023-08-31T08:11:31.067Z,17.30
2023-08-31T08:14:13.357Z,17.40
2023-08-31T08:17:29.574Z,17.50
2023-08-31T08:20:30.594Z,17.60
2023-08-31T08:23:27.820Z,17.80
2023-08-31T08:26:28.323Z,17.80
2023-08-31T08:29:27.632Z,17.90
2023-08-31T08:32:15.285Z,17.90
2023-08-31T08:35:13.768Z,17.90
2023-08-31T08:38:05.128Z,17.90
2023-08-31T08:40:57.743Z,17.80
2023-08-31T08:43:47.803Z,17.80
2023-08-31T08:46:38.508Z,17.80
2023-08-31T08:50:00.670Z,17.80
2023-08-31T08:53:11.792Z,17.90
2023-08-31T08:56:19.096Z,17.90
2023-08-31T08:59:03.669Z,17.90
2023-08-31T09:01:48.917Z,18.00
2023-08-31T09:04:24.109Z,18.00
2023-08-31T09:07:19.268Z,18.10
2023-08-31T09:09:57.024Z,18.20
2023-08-31T09:12:43.564Z,18.30
2023-08-31T09:15:28.990Z,18.30
2023-08-31T09:18:03.538Z,18.40
2023-08-31T09:21:03.766Z,18.50
2023-08-31T09:24:00.164Z,18.60
2023-08-31T09:27:29.389Z,18.70
2023-08-31T09:30:13.916Z,18.80
2023-08-31T09:33:00.210Z,19.00
2023-08-31T09:36:08.034Z,19.10
2023-08-31T09:39:12.689Z,19.20
2023-08-31T09:42:07.057Z,19.40
2023-08-31T09:45:08.197Z,19.50
2023-08-31T09:47:54.619Z,19.60
2023-08-31T09:50:36.862Z,19.70
2023-08-31T09:53:23.573Z,19.70
2023-08-31T09:56:39.863Z,19.70
2023-08-31T09:59:38.610Z,19.80
2023-08-31T10:02:34.727Z,20.00
2023-08-31T10:05:38.741Z,20.10
2023-08-31T10:08:37.309Z,20.30
2023-08-31T10:11:20.966Z,20.40
2023-08-31T10:13:53.203Z,20.50
2023-08-31T10:17:15.260Z,20.60
2023-08-31T10:19:59.152Z,20.60
2023-08-31T10:22:44.144Z,20.70
2023-08-31T10:26:07.130Z,20.80
2023-08-31T10:28:57.488Z,20.80
2023-08-31T10:32:04.045Z,20.90
2023-08-31T10:34:42.973Z,20.90
2023-08-31T10:38:19.077Z,21.00
2023-08-31T10:41:50.606Z,21.00
2023-08-31T10:44:43.917Z,21.00
2023-08-31T10:47:30.896Z,21.10
2023-08-31T10:50:46.042Z,21.20
2023-08-31T10:53:28.498Z,21.30
2023-08-31T10:56:00.452Z,21.40
2023-08-31T10:58:39.065Z,21.50
2023-08-31T11:01:15.568Z,21.60
2023-08-31T11:04:16.155Z,21.60
2023-08-31T11:07:30.919Z,21.60
2023-08-31T11:10:19.874Z,21.60
2023-08-31T11:13:26.514Z,21.60
2023-08-31T11:16:50.742Z,21.60
2023-08-31T11:19:36.307Z,21.70
2023-08-31T11:22:28.824Z,21.80
2023-08-31T11:25:15.474Z,21.90
2023-08-31T11:28:12.946Z,22.10
2023-08-31T11:31:14.313Z,22.20
2023-08-31T11:34:01.021Z,22.30
2023-08-31T11:36:49.067Z,22.40
2023-08-31T11:39:37.073Z,22.50
2023-08-31T11:42:23.509Z,22.70
2023-08-31T11:45:30.464Z,22.80
2023-08-31T11:48:14.100Z,23.00
2023-08-31T11:51:31.475Z,23.10
2023-08-31T11:54:20.031Z,23.20
2023-08-31T11:57:18.376Z,23.20
2023-08-31T12:00:17.773Z,23.10
2023-08-31T12:03:10.221Z,23.00
2023-08-31T12:05:58.245Z,22.90
2023-08-31T12:09:05.588Z,22.80
2023-08-31T12:12:02.101Z,22.80
2023-08-31T12:15:07.801Z,22.70
2023-08-31T12:17:56.785Z,22.70
2023-08-31T12:20:47.706Z,22.60
2023-08-31T12:23:30.551Z,22.50
2023-08-31T12:26:51.968Z,22.40
2023-08-31T12:29:31.935Z,22.30
2023-08-31T12:32:22.984Z,22.20
2023-08-31T12:35:20.416Z,22.20
2023-08-31T12:38:15.658Z,22.10
2023-08-31T12:41:24.641Z,22.20
2023-08-31T12:44:35.472Z,22.30
2023-08-31T12:47:32.998Z,22.60
2023-08-31T12:50:23.980Z,22.80
2023-08-31T12:53:29.231Z,23.00
2023-08-31T12:56:08.353Z,23.20
2023-08-31T12:58:48.484Z,23.20
2023-08-31T13:01:31.487Z,23.30
2023-08-31T13:04:10.815Z,23.30
2023-08-31T13:07:08.126Z,23.30
2023-08-31T13:10:25.359Z,23.30
2023-08-31T13:13:35.542Z,23.30
2023-08-31T13:16:28.402Z,23.30
2023-08-31T13:19:10.062Z,23.30
2023-08-31T13:22:14.152Z,23.40
2023-08-31T13:25:03.878Z,23.50
2023-08-31T13:27:46.890Z,23.70
2023-08-31T13:30:51.276Z,23.80
2023-08-31T13:33:37.017Z,24.00
2023-08-31T13:36:40.712Z,24.10
2023-08-31T13:39:19.716Z,24.10
2023-08-31T13:42:10.446Z,24.00
2023-08-31T13:45:10.411Z,23.80
2023-08-31T13:48:24.060Z,23.70
2023-08-31T13:51:23.933Z,23.50
2023-08-31T13:54:17.718Z,23.40
2023-08-31T13:57:24.873Z,23.40
2023-08-31T14:00:10.210Z,23.40
2023-08-31T14:02:59.994Z,23.50
2023-08-31T14:05:52.994Z,24.00
2023-08-31T14:08:43.909Z,24.40
2023-08-31T14:11:39.677Z,24.70
2023-08-31T14:14:33.269Z,24.90
2023-08-31T14:17:08.153Z,25.00
2023-08-31T14:20:05.982Z,24.90
2023-08-31T14:22:44.605Z,24.90
2023-08-31T14:25:33.560Z,24.80
2023-08-31T14:29:08.185Z,25.00
2023-08-31T14:32:13.740Z,25.50
2023-08-31T14:35:13.105Z,26.10
2023-08-31T14:38:07.634Z,26.60
2023-08-31T14:40:54.943Z,27.00
2023-08-31T14:43:47.000Z,27.00
2023-08-31T14:46:47.058Z,26.90
2023-08-31T14:49:25.955Z,26.70
2023-08-31T14:52:18.392Z,26.50
2023-08-31T14:55:12.895Z,26.30
2023-08-31T14:58:03.884Z,26.20
2023-08-31T15:01:28.064Z,26.00
2023-08-31T15:04:22.815Z,25.70
2023-08-31T15:07:08.213Z,25.40
2023-08-31T15:10:03.539Z,25.20
2023-08-31T15:13:02.082Z,24.90
2023-08-31T15:15:55.199Z,24.70
2023-08-31T15:18:49.724Z,24.50
2023-08-31T15:22:00.176Z,24.30
2023-08-31T15:24:50.641Z,24.10
2023-08-31T15:27:53.288Z,24.00
2023-08-31T15:30:39.468Z,23.90
2023-08-31T15:33:36.403Z,23.80
2023-08-31T15:36:24.087Z,23.80
2023-08-31T15:39:19.386Z,23.80
2023-08-31T15:42:04.093Z,23.80
2023-08-31T15:44:56.505Z,23.70
2023-08-31T15:47:39.143Z,23.60
2023-08-31T15:50:37.083Z,23.50
2023-08-31T15:53:40.497Z,23.40
2023-08-31T15:56:36.567Z,23.30
2023-08-31T15:59:33.753Z,23.20
2023-08-31T16:02:18.806Z,23.20
2023-08-31T16:04:58.147Z,23.10
2023-08-31T16:07:53.547Z,23.00
2023-08-31T16:10:43.199Z,22.90
2023-08-31T16:13:46.479Z,22.80
2023-08-31T16:16:36.520Z,22.70
2023-08-31T16:19:18.293Z,22.60
2023-08-31T16:22:18.073Z,22.60
2023-08-31T16:25:20.853Z,22.50
2023-08-31T16:28:22.547Z,22.40
2023-08-31T16:31:35.733Z,22.30
2023-08-31T16:34:24.131Z,22.20
2023-08-31T16:37:28.884Z,22.20
2023-08-31T16:40:37.692Z,22.10
2023-08-31T16:43:25.583Z,22.00
2023-08-31T16:46:12.214Z,21.90
2023-08-31T16:49:03.131Z,21.80
2023-08-31T16:52:24.677Z,21.70
2023-08-31T16:55:25.206Z,21.70
2023-08-31T16:58:17.114Z,21.70
2023-08-31T17:01:19.216Z,21.60
2023-08-31T17:04:34.866Z,21.50
2023-08-31T17:07:17.498Z,21.50
2023-08-31T17:10:03.349Z,21.40
2023-08-31T17:12:57.142Z,21.40
2023-08-31T17:15:40.452Z,21.30
2023-08-31T17:18:31.836Z,21.30
2023-08-31T17:21:41.736Z,21.20
2023-08-31T17:24:55.545Z,21.20
2023-08-31T17:27:58.422Z,21.10
2023-08-31T17:30:58.115Z,21.00
2023-08-31T17:33:45.454Z,21.00
2023-08-31T17:37:10.758Z,21.00
2023-08-31T17:39:57.706Z,20.90
2023-08-31T17:42:57.234Z,20.80
2023-08-31T17:45:46.630Z,20.80
2023-08-31T17:48:36.820Z,20.70
2023-08-31T17:51:29.669Z,20.70
2023-08-31T17:54:35.902Z,20.70
2023-08-31T17:57:12.052Z,20.60
2023-08-31T17:59:56.627Z,20.60
2023-08-31T18:02:55.654Z,20.50
2023-08-31T18:05:38.602Z,20.50
2023-08-31T18:08:27.218Z,20.40
2023-08-31T18:11:27.901Z,20.30
2023-08-31T18:14:09.052Z,20.30
2023-08-31T18:16:53.674Z,20.30
2023-08-31T18:19:36.682Z,20.20
2023-08-31T18:22:42.074Z,20.10
2023-08-31T18:25:12.978Z,20.00
2023-08-31T18:28:56.026Z,19.90
2023-08-31T18:31:42.545Z,19.80
2023-08-31T18:34:32.905Z,19.70
2023-08-31T18:37:30.702Z,19.60
2023-08-31T18:40:28.645Z,19.50
2023-08-31T18:43:07.376Z,19.40
2023-08-31T18:46:02.276Z,19.30
2023-08-31T18:48:48.876Z,19.20
2023-08-31T18:51:37.455Z,19.10
2023-08-31T18:54:29.117Z,19.10
2023-08-31T18:57:13.795Z,19.00
2023-08-31T18:59:55.035Z,19.00
2023-08-31T19:02:46.646Z,19.00
2023-08-31T19:05:53.008Z,18.90
2023-08-31T19:08:52.409Z,18.90
2023-08-31T19:12:13.165Z,18.80
2023-08-31T19:15:11.925Z,18.80
2023-08-31T19:17:58.433Z,18.70
2023-08-31T19:23:43.730Z,18.60
2023-08-31T19:26:23.539Z,18.50
2023-08-31T19:29:02.102Z,18.50
2023-08-31T19:31:55.834Z,18.40
2023-08-31T19:34:53.487Z,18.40
2023-08-31T19:37:40.786Z,18.30
2023-08-31T19:40:37.100Z,18.30
2023-08-31T19:43:37.682Z,18.30
2023-08-31T19:46:30.796Z,18.20
2023-08-31T19:49:28.530Z,18.20
2023-08-31T19:52:21.365Z,18.20
2023-08-31T19:55:12.109Z,18.10
2023-08-31T19:58:07.226Z,18.10
2023-08-31T20:00:48.074Z,18.10
2023-08-31T20:03:53.244Z,18.10
2023-08-31T20:06:54.060Z,18.00
2023-08-31T20:10:11.556Z,18.00
2023-08-31T20:13:06.913Z,18.00
2023-08-31T20:16:08.039Z,17.90
2023-08-31T20:19:16.185Z,17.90
2023-08-31T20:22:00.564Z,17.90
2023-08-31T20:25:22.033Z,17.90
2023-08-31T20:28:16.136Z,17.90
2023-08-31T20:31:20.167Z,17.90
2023-08-31T20:34:02.556Z,17.90
2023-08-31T20:36:54.006Z,17.90
2023-08-31T20:39:51.360Z,17.90
2023-08-31T20:42:31.540Z,17.80
2023-08-31T20:45:34.444Z,17.80
2023-08-31T20:48:31.641Z,17.80
2023-08-31T20:51:08.482Z,17.80
2023-08-31T20:53:52.341Z,17.80
2023-08-31T20:56:33.361Z,17.70
2023-08-31T20:59:53.317Z,17.70
2023-08-31T21:02:52.392Z,17.70
2023-08-31T21:05:31.846Z,17.70
2023-08-31T21:08:21.209Z,17.70
2023-08-31T21:11:02.630Z,17.70
2023-08-31T21:14:12.524Z,17.70
2023-08-31T21:17:08.296Z,17.70
2023-08-31T21:20:05.971Z,17.70
2023-08-31T21:23:18.119Z,17.70
2023-08-31T21:26:02.477Z,17.70
2023-08-31T21:29:01.741Z,17.70
2023-08-31T21:31:51.218Z,17.70
2023-08-31T21:34:45.170Z,17.70
2023-08-31T21:37:31.619Z,17.70
2023-08-31T21:40:14.022Z,17.70
2023-08-31T21:42:55.197Z,17.70
2023-08-31T21:45:34.806Z,17.60
2023-08-31T21:48:18.340Z,17.60
2023-08-31T21:51:20.664Z,17.60
2023-08-31T21:54:05.817Z,17.60
2023-08-31T21:57:11.195Z,17.60
2023-08-31T22:00:12.232Z,17.60
2023-08-31T22:02:57.656Z,17.60
2023-08-31T22:06:36.796Z,17.50
2023-08-31T22:09:27.718Z,17.50
2023-08-31T22:12:01.726Z,17.50
2023-08-31T22:14:42.675Z,17.50
2023-08-31T22:17:34.228Z,17.50
2023-08-31T22:20:13.478Z,17.50
2023-08-31T22:23:37.015Z,17.50
2023-08-31T22:26:11.139Z,17.50
2023-08-31T22:28:59.867Z,17.50
2023-08-31T22:31:57.764Z,17.50
2023-08-31T22:35:05.315Z,17.50
2023-08-31T22:37:45.964Z,17.50
2023-08-31T22:40:34.016Z,17.50
2023-08-31T22:43:16.173Z,17.50
2023-08-31T22:46:06.045Z,17.50
2023-08-31T22:49:04.909Z,17.50
2023-08-31T22:52:17.843Z,17.50
2023-08-31T22:55:44.481Z,17.40
2023-08-31T22:58:24.947Z,17.40
2023-08-31T23:01:10.591Z,17.40
2023-08-31T23:03:53.499Z,17.40
2023-08-31T23:06:31.437Z,17.40
2023-08-31T23:09:28.792Z,17.40
2023-08-31T23:12:58.914Z,17.40
2023-08-31T23:15:54.894Z,17.40
2023-08-31T23:19:00.737Z,17.30
2023-08-31T23:22:10.899Z,17.30
2023-08-31T23:25:06.536Z,17.30
2023-08-31T23:28:22.103Z,17.30
2023-08-31T23:31:22.218Z,17.30
2023-08-31T23:34:14.034Z,17.30
2023-08-31T23:37:17.597Z,17.30
2023-08-31T23:40:19.556Z,17.30
2023-08-31T23:43:34.100Z,17.30
2023-08-31T23:46:24.966Z,17.30
2023-08-31T23:49:10.189Z,17.30
2023-08-31T23:51:54.404Z,17.20
2023-08-31T23:54:35.501Z,17.20
2023-08-31T23:57:12.237Z,17.20
2023-08-31T23:59:57.969Z,17.20
